sensor_id;sensor_type;location;lat;lon;timestamp;P1;durP1;ratioP1;P2;durP2;ratioP2
49978;SDS011;35869;50.990;6.962;2023-03-03T00:02:11;29.17;;;18.88;;
49978;SDS011;35869;50.990;6.962;2023-03-03T00:07:11;32.13;;;20.42;;
49978;SDS011;35869;50.990;6.962;2023-03-03T00:12:25;30.02;;;19.20;;
49978;SDS011;35869;50.990;6.962;2023-03-03T00:17:28;34.78;;;21.52;;
49978;SDS011;35869;50.990;6.962;2023-03-03T00:22:30;33.58;;;19.98;;
49978;SDS011;35869;50.990;6.962;2023-03-03T00:27:35;35.50;;;21.50;;
49978;SDS011;35869;50.990;6.962;2023-03-03T00:32:44;34.50;;;23.20;;
49978;SDS011;35869;50.990;6.962;2023-03-03T00:37:45;37.03;;;23.10;;
49978;SDS011;35869;50.990;6.962;2023-03-03T00:42:46;34.90;;;21.38;;
49978;SDS011;35869;50.990;6.962;2023-03-03T00:47:49;30.83;;;21.73;;
49978;SDS011;35869;50.990;6.962;2023-03-03T00:52:54;34.47;;;22.63;;
49978;SDS011;35869;50.990;6.962;2023-03-03T00:57:57;36.75;;;23.08;;
49978;SDS011;35869;50.990;6.962;2023-03-03T01:02:59;42.03;;;24.20;;
49978;SDS011;35869;50.990;6.962;2023-03-03T01:08:03;38.95;;;24.33;;
49978;SDS011;35869;50.990;6.962;2023-03-03T01:13:04;40.88;;;22.98;;
49978;SDS011;35869;50.990;6.962;2023-03-03T01:18:05;34.15;;;22.65;;
49978;SDS011;35869;50.990;6.962;2023-03-03T01:23:06;37.47;;;22.80;;
49978;SDS011;35869;50.990;6.962;2023-03-03T01:28:07;38.70;;;23.00;;
49978;SDS011;35869;50.990;6.962;2023-03-03T01:33:07;40.38;;;24.98;;
49978;SDS011;35869;50.990;6.962;2023-03-03T01:38:07;36.83;;;24.33;;
49978;SDS011;35869;50.990;6.962;2023-03-03T01:43:07;38.83;;;23.83;;
49978;SDS011;35869;50.990;6.962;2023-03-03T01:48:09;40.60;;;26.45;;
49978;SDS011;35869;50.990;6.962;2023-03-03T01:53:16;40.58;;;24.98;;
49978;SDS011;35869;50.990;6.962;2023-03-03T01:58:44;44.08;;;25.35;;
49978;SDS011;35869;50.990;6.962;2023-03-03T02:03:48;41.97;;;26.13;;
49978;SDS011;35869;50.990;6.962;2023-03-03T02:14:09;42.90;;;25.75;;
49978;SDS011;35869;50.990;6.962;2023-03-03T02:19:13;45.30;;;27.52;;
49978;SDS011;35869;50.990;6.962;2023-03-03T02:24:23;41.13;;;25.20;;
49978;SDS011;35869;50.990;6.962;2023-03-03T02:29:27;39.63;;;25.27;;
49978;SDS011;35869;50.990;6.962;2023-03-03T02:34:27;43.97;;;24.08;;
49978;SDS011;35869;50.990;6.962;2023-03-03T02:39:28;47.95;;;27.77;;
49978;SDS011;35869;50.990;6.962;2023-03-03T02:44:29;44.70;;;26.92;;
49978;SDS011;35869;50.990;6.962;2023-03-03T02:49:32;46.67;;;27.17;;
49978;SDS011;35869;50.990;6.962;2023-03-03T02:54:33;43.10;;;25.83;;
49978;SDS011;35869;50.990;6.962;2023-03-03T02:59:34;43.92;;;26.27;;
49978;SDS011;35869;50.990;6.962;2023-03-03T03:04:34;43.70;;;25.27;;
49978;SDS011;35869;50.990;6.962;2023-03-03T03:09:34;39.78;;;25.33;;
49978;SDS011;35869;50.990;6.962;2023-03-03T03:14:34;40.85;;;24.50;;
49978;SDS011;35869;50.990;6.962;2023-03-03T03:19:35;41.25;;;24.58;;
49978;SDS011;35869;50.990;6.962;2023-03-03T03:24:35;42.83;;;26.05;;
49978;SDS011;35869;50.990;6.962;2023-03-03T03:29:35;44.95;;;26.08;;
49978;SDS011;35869;50.990;6.962;2023-03-03T03:34:35;41.97;;;25.52;;
49978;SDS011;35869;50.990;6.962;2023-03-03T03:39:36;39.15;;;24.27;;
49978;SDS011;35869;50.990;6.962;2023-03-03T03:44:36;38.05;;;22.25;;
49978;SDS011;35869;50.990;6.962;2023-03-03T03:49:36;41.35;;;22.27;;
49978;SDS011;35869;50.990;6.962;2023-03-03T03:54:36;38.40;;;22.27;;
49978;SDS011;35869;50.990;6.962;2023-03-03T03:59:36;37.00;;;22.73;;
49978;SDS011;35869;50.990;6.962;2023-03-03T04:04:37;38.40;;;21.88;;
49978;SDS011;35869;50.990;6.962;2023-03-03T04:09:37;35.35;;;22.38;;
49978;SDS011;35869;50.990;6.962;2023-03-03T04:14:37;35.93;;;20.07;;
49978;SDS011;35869;50.990;6.962;2023-03-03T04:19:38;38.00;;;20.37;;
49978;SDS011;35869;50.990;6.962;2023-03-03T04:24:38;30.98;;;19.48;;
49978;SDS011;35869;50.990;6.962;2023-03-03T04:29:39;30.92;;;18.85;;
49978;SDS011;35869;50.990;6.962;2023-03-03T04:34:39;34.25;;;20.50;;
49978;SDS011;35869;50.990;6.962;2023-03-03T04:39:39;35.80;;;20.55;;
49978;SDS011;35869;50.990;6.962;2023-03-03T04:44:39;34.30;;;20.95;;
49978;SDS011;35869;50.990;6.962;2023-03-03T04:49:40;37.15;;;20.23;;
49978;SDS011;35869;50.990;6.962;2023-03-03T04:54:40;35.92;;;19.48;;
49978;SDS011;35869;50.990;6.962;2023-03-03T04:59:40;33.58;;;18.92;;
49978;SDS011;35869;50.990;6.962;2023-03-03T05:04:40;33.35;;;17.85;;
49978;SDS011;35869;50.990;6.962;2023-03-03T05:09:40;34.20;;;19.58;;
49978;SDS011;35869;50.990;6.962;2023-03-03T05:14:41;34.38;;;19.23;;
49978;SDS011;35869;50.990;6.962;2023-03-03T05:19:41;35.67;;;19.67;;
49978;SDS011;35869;50.990;6.962;2023-03-03T05:24:41;30.40;;;19.55;;
49978;SDS011;35869;50.990;6.962;2023-03-03T05:29:41;38.85;;;22.42;;
49978;SDS011;35869;50.990;6.962;2023-03-03T05:34:42;34.87;;;18.80;;
49978;SDS011;35869;50.990;6.962;2023-03-03T05:39:42;34.63;;;18.17;;
49978;SDS011;35869;50.990;6.962;2023-03-03T05:44:42;29.92;;;18.17;;
49978;SDS011;35869;50.990;6.962;2023-03-03T05:49:42;31.00;;;17.57;;
49978;SDS011;35869;50.990;6.962;2023-03-03T05:54:43;35.70;;;19.63;;
49978;SDS011;35869;50.990;6.962;2023-03-03T05:59:43;33.23;;;19.50;;
49978;SDS011;35869;50.990;6.962;2023-03-03T06:04:43;33.58;;;18.67;;
49978;SDS011;35869;50.990;6.962;2023-03-03T06:09:43;31.95;;;17.55;;
49978;SDS011;35869;50.990;6.962;2023-03-03T06:14:44;35.70;;;19.30;;
49978;SDS011;35869;50.990;6.962;2023-03-03T06:19:44;33.92;;;18.80;;
49978;SDS011;35869;50.990;6.962;2023-03-03T06:24:44;33.55;;;18.67;;
49978;SDS011;35869;50.990;6.962;2023-03-03T06:29:44;31.30;;;17.08;;
49978;SDS011;35869;50.990;6.962;2023-03-03T06:34:44;31.13;;;18.13;;
49978;SDS011;35869;50.990;6.962;2023-03-03T06:39:45;31.35;;;17.10;;
49978;SDS011;35869;50.990;6.962;2023-03-03T06:44:45;32.33;;;17.23;;
49978;SDS011;35869;50.990;6.962;2023-03-03T06:49:46;29.77;;;17.88;;
49978;SDS011;35869;50.990;6.962;2023-03-03T06:54:46;26.93;;;16.80;;
49978;SDS011;35869;50.990;6.962;2023-03-03T06:59:47;30.92;;;15.95;;
49978;SDS011;35869;50.990;6.962;2023-03-03T07:04:52;27.67;;;16.10;;
49978;SDS011;35869;50.990;6.962;2023-03-03T07:09:55;31.00;;;18.33;;
49978;SDS011;35869;50.990;6.962;2023-03-03T07:15:12;29.30;;;18.17;;
49978;SDS011;35869;50.990;6.962;2023-03-03T07:20:20;32.05;;;17.90;;
49978;SDS011;35869;50.990;6.962;2023-03-03T07:25:30;33.15;;;16.63;;
49978;SDS011;35869;50.990;6.962;2023-03-03T07:30:31;26.95;;;16.70;;
49978;SDS011;35869;50.990;6.962;2023-03-03T07:40:37;34.05;;;18.35;;
49978;SDS011;35869;50.990;6.962;2023-03-03T07:45:38;31.77;;;18.25;;
49978;SDS011;35869;50.990;6.962;2023-03-03T07:50:38;26.40;;;16.30;;
49978;SDS011;35869;50.990;6.962;2023-03-03T08:06:29;24.98;;;15.88;;
49978;SDS011;35869;50.990;6.962;2023-03-03T08:11:30;28.70;;;15.00;;
49978;SDS011;35869;50.990;6.962;2023-03-03T08:16:34;25.10;;;14.45;;
49978;SDS011;35869;50.990;6.962;2023-03-03T08:21:37;32.80;;;16.17;;
49978;SDS011;35869;50.990;6.962;2023-03-03T08:26:37;24.67;;;15.68;;
49978;SDS011;35869;50.990;6.962;2023-03-03T08:31:37;29.60;;;16.45;;
49978;SDS011;35869;50.990;6.962;2023-03-03T08:36:38;27.70;;;15.77;;
49978;SDS011;35869;50.990;6.962;2023-03-03T08:41:38;31.20;;;15.45;;
49978;SDS011;35869;50.990;6.962;2023-03-03T08:46:38;31.35;;;17.70;;
49978;SDS011;35869;50.990;6.962;2023-03-03T08:51:38;32.08;;;17.92;;
49978;SDS011;35869;50.990;6.962;2023-03-03T08:56:38;30.40;;;17.95;;
49978;SDS011;35869;50.990;6.962;2023-03-03T09:01:39;30.98;;;15.77;;
49978;SDS011;35869;50.990;6.962;2023-03-03T09:06:39;29.88;;;16.83;;
49978;SDS011;35869;50.990;6.962;2023-03-03T09:11:39;27.55;;;15.10;;
49978;SDS011;35869;50.990;6.962;2023-03-03T09:16:43;22.20;;;13.10;;
49978;SDS011;35869;50.990;6.962;2023-03-03T09:21:52;23.17;;;13.65;;
49978;SDS011;35869;50.990;6.962;2023-03-03T09:26:54;24.92;;;14.73;;
49978;SDS011;35869;50.990;6.962;2023-03-03T09:31:55;28.00;;;15.38;;
49978;SDS011;35869;50.990;6.962;2023-03-03T09:36:59;31.60;;;17.20;;
49978;SDS011;35869;50.990;6.962;2023-03-03T09:52:59;30.15;;;16.20;;
49978;SDS011;35869;50.990;6.962;2023-03-03T11:02:09;32.60;;;17.50;;
49978;SDS011;35869;50.990;6.962;2023-03-03T11:12:59;33.60;;;17.17;;
49978;SDS011;35869;50.990;6.962;2023-03-03T11:40:00;30.63;;;18.20;;
49978;SDS011;35869;50.990;6.962;2023-03-03T11:50:41;28.95;;;15.02;;
49978;SDS011;35869;50.990;6.962;2023-03-03T11:55:40;27.00;;;16.00;;
49978;SDS011;35869;50.990;6.962;2023-03-03T12:00:51;33.45;;;16.77;;
49978;SDS011;35869;50.990;6.962;2023-03-03T12:11:46;30.38;;;17.42;;
49978;SDS011;35869;50.990;6.962;2023-03-03T12:16:55;28.57;;;16.40;;
49978;SDS011;35869;50.990;6.962;2023-03-03T12:22:05;29.00;;;15.55;;
49978;SDS011;35869;50.990;6.962;2023-03-03T12:27:34;28.98;;;16.77;;
49978;SDS011;35869;50.990;6.962;2023-03-03T12:38:21;24.70;;;13.27;;
49978;SDS011;35869;50.990;6.962;2023-03-03T12:48:45;26.08;;;15.13;;
49978;SDS011;35869;50.990;6.962;2023-03-03T12:59:09;29.00;;;15.88;;
49978;SDS011;35869;50.990;6.962;2023-03-03T13:25:59;26.55;;;16.10;;
49978;SDS011;35869;50.990;6.962;2023-03-03T13:31:11;34.13;;;17.15;;
49978;SDS011;35869;50.990;6.962;2023-03-03T13:36:15;27.20;;;15.95;;
49978;SDS011;35869;50.990;6.962;2023-03-03T13:46:55;30.65;;;17.50;;
49978;SDS011;35869;50.990;6.962;2023-03-03T13:52:21;30.33;;;16.73;;
49978;SDS011;35869;50.990;6.962;2023-03-03T13:57:35;33.80;;;18.67;;
49978;SDS011;35869;50.990;6.962;2023-03-03T14:03:54;38.40;;;18.45;;
49978;SDS011;35869;50.990;6.962;2023-03-03T14:08:47;38.25;;;18.50;;
49978;SDS011;35869;50.990;6.962;2023-03-03T14:24:25;37.45;;;19.35;;
49978;SDS011;35869;50.990;6.962;2023-03-03T14:39:31;38.90;;;20.65;;
49978;SDS011;35869;50.990;6.962;2023-03-03T14:44:37;39.78;;;20.48;;
49978;SDS011;35869;50.990;6.962;2023-03-03T14:49:52;36.92;;;20.92;;
49978;SDS011;35869;50.990;6.962;2023-03-03T14:54:58;37.40;;;20.80;;
49978;SDS011;35869;50.990;6.962;2023-03-03T15:05:22;40.60;;;20.05;;
49978;SDS011;35869;50.990;6.962;2023-03-03T15:15:37;37.08;;;18.92;;
49978;SDS011;35869;50.990;6.962;2023-03-03T15:20:51;38.92;;;19.70;;
49978;SDS011;35869;50.990;6.962;2023-03-03T15:26:01;33.35;;;17.00;;
49978;SDS011;35869;50.990;6.962;2023-03-03T15:31:12;33.42;;;16.85;;
49978;SDS011;35869;50.990;6.962;2023-03-03T15:36:19;38.60;;;18.67;;
49978;SDS011;35869;50.990;6.962;2023-03-03T15:41:37;36.20;;;17.73;;
49978;SDS011;35869;50.990;6.962;2023-03-03T16:08:07;31.60;;;16.88;;
49978;SDS011;35869;50.990;6.962;2023-03-03T16:13:21;30.88;;;16.63;;
49978;SDS011;35869;50.990;6.962;2023-03-03T16:23:59;30.05;;;16.15;;
49978;SDS011;35869;50.990;6.962;2023-03-03T16:39:35;39.38;;;17.02;;
49978;SDS011;35869;50.990;6.962;2023-03-03T16:55:51;39.15;;;19.45;;
49978;SDS011;35869;50.990;6.962;2023-03-03T17:01:04;40.50;;;19.50;;
49978;SDS011;35869;50.990;6.962;2023-03-03T17:22:44;34.33;;;16.92;;
49978;SDS011;35869;50.990;6.962;2023-03-03T17:33:17;31.70;;;16.42;;
49978;SDS011;35869;50.990;6.962;2023-03-03T17:38:46;31.45;;;17.25;;
49978;SDS011;35869;50.990;6.962;2023-03-03T18:04:55;29.75;;;16.45;;
49978;SDS011;35869;50.990;6.962;2023-03-03T18:21:26;33.40;;;18.30;;
49978;SDS011;35869;50.990;6.962;2023-03-03T18:32:22;45.60;;;26.70;;
49978;SDS011;35869;50.990;6.962;2023-03-03T18:42:34;52.45;;;28.90;;
49978;SDS011;35869;50.990;6.962;2023-03-03T18:53:26;59.65;;;30.67;;
49978;SDS011;35869;50.990;6.962;2023-03-03T18:58:28;56.97;;;33.13;;
49978;SDS011;35869;50.990;6.962;2023-03-03T19:03:36;64.28;;;32.35;;
49978;SDS011;35869;50.990;6.962;2023-03-03T19:08:55;73.72;;;36.88;;
49978;SDS011;35869;50.990;6.962;2023-03-03T19:19:14;65.22;;;33.00;;
49978;SDS011;35869;50.990;6.962;2023-03-03T19:34:53;70.40;;;37.85;;
49978;SDS011;35869;50.990;6.962;2023-03-03T19:45:17;66.95;;;38.28;;
49978;SDS011;35869;50.990;6.962;2023-03-03T19:50:31;67.95;;;36.13;;
49978;SDS011;35869;50.990;6.962;2023-03-03T20:06:53;66.30;;;38.70;;
49978;SDS011;35869;50.990;6.962;2023-03-03T20:38:50;82.18;;;45.40;;
49978;SDS011;35869;50.990;6.962;2023-03-03T20:54:59;82.80;;;42.47;;
49978;SDS011;35869;50.990;6.962;2023-03-03T21:00:12;82.75;;;42.00;;
49978;SDS011;35869;50.990;6.962;2023-03-03T21:05:21;84.40;;;42.42;;
49978;SDS011;35869;50.990;6.962;2023-03-03T21:10:24;88.60;;;45.55;;
49978;SDS011;35869;50.990;6.962;2023-03-03T21:20:29;80.03;;;44.28;;
49978;SDS011;35869;50.990;6.962;2023-03-03T21:36:02;78.10;;;42.28;;
49978;SDS011;35869;50.990;6.962;2023-03-03T21:41:02;86.97;;;44.67;;
49978;SDS011;35869;50.990;6.962;2023-03-03T21:46:02;76.90;;;40.57;;
49978;SDS011;35869;50.990;6.962;2023-03-03T21:51:03;90.97;;;43.30;;
49978;SDS011;35869;50.990;6.962;2023-03-03T21:56:03;74.83;;;44.20;;
49978;SDS011;35869;50.990;6.962;2023-03-03T22:01:04;88.50;;;41.83;;
49978;SDS011;35869;50.990;6.962;2023-03-03T22:06:05;84.10;;;41.33;;
49978;SDS011;35869;50.990;6.962;2023-03-03T22:11:06;83.07;;;41.83;;
49978;SDS011;35869;50.990;6.962;2023-03-03T22:16:06;97.43;;;45.17;;
49978;SDS011;35869;50.990;6.962;2023-03-03T22:21:07;79.22;;;38.53;;
49978;SDS011;35869;50.990;6.962;2023-03-03T22:26:07;76.10;;;39.33;;
49978;SDS011;35869;50.990;6.962;2023-03-03T22:31:07;71.68;;;38.08;;
49978;SDS011;35869;50.990;6.962;2023-03-03T22:36:08;75.37;;;39.60;;
49978;SDS011;35869;50.990;6.962;2023-03-03T22:41:08;77.77;;;39.23;;
49978;SDS011;35869;50.990;6.962;2023-03-03T22:46:08;65.75;;;37.50;;
49978;SDS011;35869;50.990;6.962;2023-03-03T22:51:09;76.03;;;39.37;;
49978;SDS011;35869;50.990;6.962;2023-03-03T22:56:09;76.93;;;38.65;;
49978;SDS011;35869;50.990;6.962;2023-03-03T23:01:09;74.35;;;39.75;;
49978;SDS011;35869;50.990;6.962;2023-03-03T23:06:09;76.50;;;37.30;;
49978;SDS011;35869;50.990;6.962;2023-03-03T23:11:09;67.55;;;37.13;;
49978;SDS011;35869;50.990;6.962;2023-03-03T23:16:10;72.25;;;37.22;;
49978;SDS011;35869;50.990;6.962;2023-03-03T23:21:10;71.05;;;36.40;;
49978;SDS011;35869;50.990;6.962;2023-03-03T23:26:10;70.05;;;36.20;;
49978;SDS011;35869;50.990;6.962;2023-03-03T23:31:10;65.00;;;33.45;;
49978;SDS011;35869;50.990;6.962;2023-03-03T23:36:11;67.55;;;37.15;;
49978;SDS011;35869;50.990;6.962;2023-03-03T23:41:11;74.00;;;35.27;;
49978;SDS011;35869;50.990;6.962;2023-03-03T23:46:11;60.75;;;30.02;;
49978;SDS011;35869;50.990;6.962;2023-03-03T23:51:11;67.28;;;33.05;;
49978;SDS011;35869;50.990;6.962;2023-03-03T23:56:11;56.03;;;30.17;;
